sensor_id;sensor_type;location;lat;lon;timestamp;pressure;altitude;pressure_sealevel;temperature;humidity
76819;BME280;65772;51.096;17.006;2023-04-03T05:53:17;101283.54;;;7.12;48.08
76819;BME280;65772;51.096;17.006;2023-04-03T05:55:49;101285.13;;;7.13;48.19
76819;BME280;65772;51.096;17.006;2023-04-03T05:58:20;101284.97;;;7.13;48.33
76819;BME280;65772;51.096;17.006;2023-04-03T06:00:51;101289.87;;;7.13;48.03
76819;BME280;65772;51.096;17.006;2023-04-03T06:03:22;101287.13;;;7.09;48.25
76819;BME280;65772;51.096;17.006;2023-04-03T06:05:53;101290.37;;;7.06;47.92
76819;BME280;65772;51.096;17.006;2023-04-03T06:08:26;101295.58;;;7.05;48.42
76819;BME280;65772;51.096;17.006;2023-04-03T06:10:57;101294.75;;;7.03;48.14
76819;BME280;65772;51.096;17.006;2023-04-03T06:13:27;101292.36;;;7.00;48.07
76819;BME280;65772;51.096;17.006;2023-04-03T06:15:58;101292.70;;;7.00;48.36
76819;BME280;65772;51.096;17.006;2023-04-03T06:18:29;101292.52;;;7.03;48.31
76819;BME280;65772;51.096;17.006;2023-04-03T06:21:00;101297.30;;;7.06;48.01
76819;BME280;65772;51.096;17.006;2023-04-03T06:23:32;101299.27;;;7.05;48.39
76819;BME280;65772;51.096;17.006;2023-04-03T06:26:02;101301.73;;;7.04;48.31
76819;BME280;65772;51.096;17.006;2023-04-03T06:28:33;101300.57;;;7.04;48.41
76819;BME280;65772;51.096;17.006;2023-04-03T06:31:04;101306.55;;;7.05;48.33
76819;BME280;65772;51.096;17.006;2023-04-03T06:33:34;101301.70;;;7.06;48.00
76819;BME280;65772;51.096;17.006;2023-04-03T06:36:07;101302.73;;;7.08;48.20
76819;BME280;65772;51.096;17.006;2023-04-03T06:38:38;101305.32;;;7.07;48.28
76819;BME280;65772;51.096;17.006;2023-04-03T06:41:08;101304.83;;;7.04;48.15
76819;BME280;65772;51.096;17.006;2023-04-03T06:43:39;101309.58;;;7.04;48.20
76819;BME280;65772;51.096;17.006;2023-04-03T06:46:14;101311.30;;;7.05;48.13
76819;BME280;65772;51.096;17.006;2023-04-03T06:48:46;101314.06;;;7.02;48.27
76819;BME280;65772;51.096;17.006;2023-04-03T06:51:21;101319.86;;;7.03;47.92
76819;BME280;65772;51.096;17.006;2023-04-03T06:53:53;101318.25;;;7.04;48.01
76819;BME280;65772;51.096;17.006;2023-04-03T06:56:22;101322.36;;;7.08;48.40
76819;BME280;65772;51.096;17.006;2023-04-03T06:58:54;101327.58;;;7.10;47.69
76819;BME280;65772;51.096;17.006;2023-04-03T07:01:28;101332.19;;;7.10;47.65
76819;BME280;65772;51.096;17.006;2023-04-03T07:03:57;101336.96;;;7.14;47.91
76819;BME280;65772;51.096;17.006;2023-04-03T07:06:28;101340.15;;;7.13;47.81
76819;BME280;65772;51.096;17.006;2023-04-03T07:09:00;101340.91;;;7.12;47.64
76819;BME280;65772;51.096;17.006;2023-04-03T07:11:31;101341.89;;;7.11;47.50
76819;BME280;65772;51.096;17.006;2023-04-03T07:14:02;101342.14;;;7.12;47.62
76819;BME280;65772;51.096;17.006;2023-04-03T07:16:33;101346.84;;;7.14;47.57
76819;BME280;65772;51.096;17.006;2023-04-03T07:19:04;101343.39;;;7.13;47.47
76819;BME280;65772;51.096;17.006;2023-04-03T07:21:34;101346.78;;;7.13;47.37
76819;BME280;65772;51.096;17.006;2023-04-03T07:24:05;101350.09;;;7.15;47.31
76819;BME280;65772;51.096;17.006;2023-04-03T07:26:41;101352.98;;;7.17;47.41
76819;BME280;65772;51.096;17.006;2023-04-03T07:29:12;101354.91;;;7.21;47.04
76819;BME280;65772;51.096;17.006;2023-04-03T07:31:43;101353.98;;;7.26;47.25
76819;BME280;65772;51.096;17.006;2023-04-03T07:34:14;101356.08;;;7.29;47.08
76819;BME280;65772;51.096;17.006;2023-04-03T07:36:45;101356.54;;;7.32;47.33
76819;BME280;65772;51.096;17.006;2023-04-03T07:39:16;101360.43;;;7.34;46.76
76819;BME280;65772;51.096;17.006;2023-04-03T07:41:46;101358.40;;;7.34;47.06
76819;BME280;65772;51.096;17.006;2023-04-03T07:44:18;101361.53;;;7.35;46.92
76819;BME280;65772;51.096;17.006;2023-04-03T07:46:48;101363.60;;;7.39;46.89
76819;BME280;65772;51.096;17.006;2023-04-03T07:49:19;101361.17;;;7.41;46.67
76819;BME280;65772;51.096;17.006;2023-04-03T07:51:52;101361.35;;;7.42;46.58
76819;BME280;65772;51.096;17.006;2023-04-03T07:54:23;101359.52;;;7.45;46.31
76819;BME280;65772;51.096;17.006;2023-04-03T07:56:54;101360.66;;;7.50;46.26
76819;BME280;65772;51.096;17.006;2023-04-03T07:59:24;101356.52;;;7.52;46.01
76819;BME280;65772;51.096;17.006;2023-04-03T08:01:55;101360.27;;;7.52;46.16
76819;BME280;65772;51.096;17.006;2023-04-03T08:04:26;101359.09;;;7.52;46.12
76819;BME280;65772;51.096;17.006;2023-04-03T08:06:57;101361.13;;;7.55;45.94
76819;BME280;65772;51.096;17.006;2023-04-03T08:09:27;101361.72;;;7.56;45.56
76819;BME280;65772;51.096;17.006;2023-04-03T08:11:58;101357.95;;;7.59;44.95
76819;BME280;65772;51.096;17.006;2023-04-03T08:14:31;101364.86;;;7.60;45.32
76819;BME280;65772;51.096;17.006;2023-04-03T08:17:03;101360.04;;;7.62;45.12
76819;BME280;65772;51.096;17.006;2023-04-03T08:19:34;101356.84;;;7.63;44.93
76819;BME280;65772;51.096;17.006;2023-04-03T08:22:05;101361.54;;;7.65;45.04
76819;BME280;65772;51.096;17.006;2023-04-03T08:24:36;101358.43;;;7.64;44.89
76819;BME280;65772;51.096;17.006;2023-04-03T08:27:11;101359.14;;;7.65;44.52
76819;BME280;65772;51.096;17.006;2023-04-03T08:29:42;101354.61;;;7.66;44.69
76819;BME280;65772;51.096;17.006;2023-04-03T08:32:12;101352.15;;;7.67;44.04
76819;BME280;65772;51.096;17.006;2023-04-03T08:34:43;101354.20;;;7.70;44.02
76819;BME280;65772;51.096;17.006;2023-04-03T08:37:13;101353.02;;;7.74;44.78
76819;BME280;65772;51.096;17.006;2023-04-03T08:39:47;101352.14;;;7.79;44.93
76819;BME280;65772;51.096;17.006;2023-04-03T08:42:23;101356.58;;;7.85;45.16
76819;BME280;65772;51.096;17.006;2023-04-03T08:45:01;101351.50;;;7.92;44.61
76819;BME280;65772;51.096;17.006;2023-04-03T08:47:40;101354.46;;;7.96;44.47
76819;BME280;65772;51.096;17.006;2023-04-03T08:50:16;101358.52;;;7.99;44.31
76819;BME280;65772;51.096;17.006;2023-04-03T08:52:49;101361.88;;;8.01;44.28
76819;BME280;65772;51.096;17.006;2023-04-03T08:55:25;101354.59;;;8.04;44.10
76819;BME280;65772;51.096;17.006;2023-04-03T08:58:01;101352.97;;;8.09;44.23
76819;BME280;65772;51.096;17.006;2023-04-03T09:00:40;101350.80;;;8.13;43.41
76819;BME280;65772;51.096;17.006;2023-04-03T09:03:16;101347.89;;;8.15;42.92
76819;BME280;65772;51.096;17.006;2023-04-03T09:05:50;101345.39;;;8.17;42.90
76819;BME280;65772;51.096;17.006;2023-04-03T09:08:28;101348.05;;;8.19;42.63
76819;BME280;65772;51.096;17.006;2023-04-03T09:11:09;101344.09;;;8.21;42.51
76819;BME280;65772;51.096;17.006;2023-04-03T09:13:51;101347.24;;;8.22;42.58
76819;BME280;65772;51.096;17.006;2023-04-03T09:16:35;101347.59;;;8.25;42.60
76819;BME280;65772;51.096;17.006;2023-04-03T09:19:18;101348.89;;;8.31;42.13
76819;BME280;65772;51.096;17.006;2023-04-03T09:21:53;101345.63;;;8.33;42.09
76819;BME280;65772;51.096;17.006;2023-04-03T09:24:24;101348.64;;;8.32;41.68
76819;BME280;65772;51.096;17.006;2023-04-03T09:26:58;101345.86;;;8.31;41.43
76819;BME280;65772;51.096;17.006;2023-04-03T09:29:29;101348.83;;;8.32;40.92
76819;BME280;65772;51.096;17.006;2023-04-03T09:32:02;101350.77;;;8.33;40.26
76819;BME280;65772;51.096;17.006;2023-04-03T09:34:35;101347.09;;;8.34;39.79
76819;BME280;65772;51.096;17.006;2023-04-03T09:37:06;101345.81;;;8.36;39.89
76819;BME280;65772;51.096;17.006;2023-04-03T09:39:52;101349.80;;;8.37;39.84
76819;BME280;65772;51.096;17.006;2023-04-03T09:42:25;101351.84;;;8.40;39.27
76819;BME280;65772;51.096;17.006;2023-04-03T09:44:58;101349.02;;;8.45;39.02
76819;BME280;65772;51.096;17.006;2023-04-03T09:47:30;101349.16;;;8.48;38.63
76819;BME280;65772;51.096;17.006;2023-04-03T09:50:20;101350.02;;;8.51;38.91
76819;BME280;65772;51.096;17.006;2023-04-03T09:52:52;101352.65;;;8.55;39.04
76819;BME280;65772;51.096;17.006;2023-04-03T09:55:24;101353.11;;;8.58;39.10
76819;BME280;65772;51.096;17.006;2023-04-03T09:58:00;101353.65;;;8.61;38.89
76819;BME280;65772;51.096;17.006;2023-04-03T10:00:33;101351.28;;;8.65;39.18
76819;BME280;65772;51.096;17.006;2023-04-03T10:03:09;101346.69;;;8.65;39.07
76819;BME280;65772;51.096;17.006;2023-04-03T10:05:53;101346.19;;;8.68;38.66
76819;BME280;65772;51.096;17.006;2023-04-03T10:08:27;101342.16;;;8.72;38.65
76819;BME280;65772;51.096;17.006;2023-04-03T10:11:10;101346.97;;;8.76;38.01
76819;BME280;65772;51.096;17.006;2023-04-03T10:13:55;101344.02;;;8.78;37.82
76819;BME280;65772;51.096;17.006;2023-04-03T10:16:38;101340.07;;;8.82;38.03
76819;BME280;65772;51.096;17.006;2023-04-03T10:19:31;101346.62;;;8.86;37.91
76819;BME280;65772;51.096;17.006;2023-04-03T10:22:06;101344.64;;;8.91;37.52
76819;BME280;65772;51.096;17.006;2023-04-03T10:24:47;101343.13;;;8.94;37.03
76819;BME280;65772;51.096;17.006;2023-04-03T10:27:24;101339.38;;;8.98;36.66
76819;BME280;65772;51.096;17.006;2023-04-03T10:29:57;101343.23;;;8.99;36.60
76819;BME280;65772;51.096;17.006;2023-04-03T10:32:47;101341.25;;;9.01;36.54
76819;BME280;65772;51.096;17.006;2023-04-03T10:35:29;101339.23;;;9.05;36.22
76819;BME280;65772;51.096;17.006;2023-04-03T10:38:08;101334.23;;;9.07;36.46
76819;BME280;65772;51.096;17.006;2023-04-03T10:40:47;101336.31;;;9.10;36.57
76819;BME280;65772;51.096;17.006;2023-04-03T10:43:27;101338.47;;;9.13;36.65
76819;BME280;65772;51.096;17.006;2023-04-03T10:46:05;101339.59;;;9.15;36.69
76819;BME280;65772;51.096;17.006;2023-04-03T10:49:01;101335.16;;;9.15;36.94
76819;BME280;65772;51.096;17.006;2023-04-03T10:51:43;101332.68;;;9.16;36.54
76819;BME280;65772;51.096;17.006;2023-04-03T10:54:20;101334.08;;;9.17;36.24
76819;BME280;65772;51.096;17.006;2023-04-03T10:56:57;101326.50;;;9.19;36.56
76819;BME280;65772;51.096;17.006;2023-04-03T10:59:43;101329.51;;;9.21;36.16
76819;BME280;65772;51.096;17.006;2023-04-03T11:02:19;101326.31;;;9.22;35.92
76819;BME280;65772;51.096;17.006;2023-04-03T11:04:57;101331.62;;;9.23;35.89
76819;BME280;65772;51.096;17.006;2023-04-03T11:07:32;101335.73;;;9.23;35.72
76819;BME280;65772;51.096;17.006;2023-04-03T11:10:09;101332.55;;;9.24;35.71
76819;BME280;65772;51.096;17.006;2023-04-03T11:12:46;101331.86;;;9.27;35.99
76819;BME280;65772;51.096;17.006;2023-04-03T11:15:29;101336.56;;;9.29;36.20
76819;BME280;65772;51.096;17.006;2023-04-03T11:18:05;101333.45;;;9.32;35.93
76819;BME280;65772;51.096;17.006;2023-04-03T11:20:43;101329.38;;;9.32;35.63
76819;BME280;65772;51.096;17.006;2023-04-03T11:23:21;101329.71;;;9.32;35.75
76819;BME280;65772;51.096;17.006;2023-04-03T11:26:05;101327.05;;;9.30;35.75
76819;BME280;65772;51.096;17.006;2023-04-03T11:28:37;101324.70;;;9.27;35.60
76819;BME280;65772;51.096;17.006;2023-04-03T11:31:19;101312.54;;;9.29;35.39
76819;BME280;65772;51.096;17.006;2023-04-03T11:34:08;101313.49;;;9.31;35.47
76819;BME280;65772;51.096;17.006;2023-04-03T11:36:46;101317.83;;;9.32;35.41
76819;BME280;65772;51.096;17.006;2023-04-03T11:39:23;101322.30;;;9.34;35.90
76819;BME280;65772;51.096;17.006;2023-04-03T11:41:56;101315.61;;;9.36;35.77
76819;BME280;65772;51.096;17.006;2023-04-03T11:44:43;101310.38;;;9.40;35.72
76819;BME280;65772;51.096;17.006;2023-04-03T11:47:47;101311.30;;;9.45;35.39
76819;BME280;65772;51.096;17.006;2023-04-03T11:50:42;101312.40;;;9.50;34.73
76819;BME280;65772;51.096;17.006;2023-04-03T11:53:31;101316.11;;;9.53;34.03
76819;BME280;65772;51.096;17.006;2023-04-03T11:56:26;101313.46;;;9.55;33.92
76819;BME280;65772;51.096;17.006;2023-04-03T11:59:21;101304.33;;;9.56;33.59
76819;BME280;65772;51.096;17.006;2023-04-03T12:01:53;101306.16;;;9.59;33.91
76819;BME280;65772;51.096;17.006;2023-04-03T12:04:25;101304.48;;;9.63;34.32
76819;BME280;65772;51.096;17.006;2023-04-03T12:07:13;101303.32;;;9.67;34.61
76819;BME280;65772;51.096;17.006;2023-04-03T12:10:17;101305.92;;;9.71;34.05
76819;BME280;65772;51.096;17.006;2023-04-03T12:13:00;101307.42;;;9.71;33.60
76819;BME280;65772;51.096;17.006;2023-04-03T12:15:52;101302.09;;;9.70;33.59
76819;BME280;65772;51.096;17.006;2023-04-03T12:18:59;101303.94;;;9.69;33.43
76819;BME280;65772;51.096;17.006;2023-04-03T12:22:14;101301.64;;;9.71;33.32
76819;BME280;65772;51.096;17.006;2023-04-03T12:24:46;101297.16;;;9.73;33.26
76819;BME280;65772;51.096;17.006;2023-04-03T12:27:30;101302.03;;;9.76;33.28
76819;BME280;65772;51.096;17.006;2023-04-03T12:30:15;101299.91;;;9.78;32.74
76819;BME280;65772;51.096;17.006;2023-04-03T12:33:04;101292.58;;;9.78;32.32
76819;BME280;65772;51.096;17.006;2023-04-03T12:35:47;101292.80;;;9.79;32.65
76819;BME280;65772;51.096;17.006;2023-04-03T12:38:57;101290.00;;;9.81;32.86
76819;BME280;65772;51.096;17.006;2023-04-03T12:41:38;101296.27;;;9.83;32.88
76819;BME280;65772;51.096;17.006;2023-04-03T12:44:24;101298.92;;;9.86;33.12
76819;BME280;65772;51.096;17.006;2023-04-03T12:47:01;101300.50;;;9.86;33.22
76819;BME280;65772;51.096;17.006;2023-04-03T12:49:40;101300.67;;;9.86;33.40
76819;BME280;65772;51.096;17.006;2023-04-03T12:52:21;101299.70;;;9.87;33.75
76819;BME280;65772;51.096;17.006;2023-04-03T12:54:56;101298.79;;;9.90;33.65
76819;BME280;65772;51.096;17.006;2023-04-03T12:57:27;101295.89;;;9.93;33.81
76819;BME280;65772;51.096;17.006;2023-04-03T12:59:58;101292.86;;;9.98;33.28
76819;BME280;65772;51.096;17.006;2023-04-03T13:02:30;101293.58;;;10.02;32.86
76819;BME280;65772;51.096;17.006;2023-04-03T13:05:08;101295.69;;;10.04;33.10
76819;BME280;65772;51.096;17.006;2023-04-03T13:07:39;101299.06;;;10.03;32.83
76819;BME280;65772;51.096;17.006;2023-04-03T13:10:19;101291.83;;;10.02;32.88
76819;BME280;65772;51.096;17.006;2023-04-03T13:12:52;101289.99;;;9.99;32.70
76819;BME280;65772;51.096;17.006;2023-04-03T13:15:25;101286.98;;;10.00;33.13
76819;BME280;65772;51.096;17.006;2023-04-03T13:17:57;101283.53;;;10.03;32.65
76819;BME280;65772;51.096;17.006;2023-04-03T13:20:30;101282.00;;;10.06;32.88
76819;BME280;65772;51.096;17.006;2023-04-03T13:23:04;101282.36;;;10.11;32.58
76819;BME280;65772;51.096;17.006;2023-04-03T13:25:39;101281.81;;;10.13;32.44
76819;BME280;65772;51.096;17.006;2023-04-03T13:28:15;101277.69;;;10.16;32.47
76819;BME280;65772;51.096;17.006;2023-04-03T13:30:59;101277.10;;;10.18;32.28
76819;BME280;65772;51.096;17.006;2023-04-03T13:33:35;101276.80;;;10.19;32.17
76819;BME280;65772;51.096;17.006;2023-04-03T13:36:10;101280.09;;;10.20;32.49
76819;BME280;65772;51.096;17.006;2023-04-03T13:38:46;101281.86;;;10.21;32.49
76819;BME280;65772;51.096;17.006;2023-04-03T13:41:31;101288.70;;;10.21;32.26
76819;BME280;65772;51.096;17.006;2023-04-03T13:44:35;101291.27;;;10.21;32.51
76819;BME280;65772;51.096;17.006;2023-04-03T13:47:19;101283.86;;;10.23;32.20
76819;BME280;65772;51.096;17.006;2023-04-03T13:50:03;101281.63;;;10.27;32.07
76819;BME280;65772;51.096;17.006;2023-04-03T13:52:41;101282.30;;;10.31;31.89
76819;BME280;65772;51.096;17.006;2023-04-03T13:55:23;101288.95;;;10.35;31.95
76819;BME280;65772;51.096;17.006;2023-04-03T13:57:58;101288.92;;;10.38;32.03
76819;BME280;65772;51.096;17.006;2023-04-03T14:00:33;101277.77;;;10.40;31.87
76819;BME280;65772;51.096;17.006;2023-04-03T14:03:14;101273.18;;;10.41;31.92
76819;BME280;65772;51.096;17.006;2023-04-03T14:05:47;101274.58;;;10.45;34.65
76819;BME280;65772;51.096;17.006;2023-04-03T14:08:18;101272.03;;;10.49;33.33
76819;BME280;65772;51.096;17.006;2023-04-03T14:10:57;101267.26;;;10.53;32.80
76819;BME280;65772;51.096;17.006;2023-04-03T14:13:30;101273.97;;;10.54;31.89
76819;BME280;65772;51.096;17.006;2023-04-03T14:16:01;101277.36;;;10.54;31.14
76819;BME280;65772;51.096;17.006;2023-04-03T14:18:44;101268.77;;;10.52;30.80
76819;BME280;65772;51.096;17.006;2023-04-03T14:21:17;101269.53;;;10.51;30.63
76819;BME280;65772;51.096;17.006;2023-04-03T14:23:48;101270.66;;;10.49;30.70
76819;BME280;65772;51.096;17.006;2023-04-03T14:26:22;101275.19;;;10.47;30.55
76819;BME280;65772;51.096;17.006;2023-04-03T14:28:54;101281.29;;;10.46;30.92
76819;BME280;65772;51.096;17.006;2023-04-03T14:31:25;101279.73;;;10.46;30.86
76819;BME280;65772;51.096;17.006;2023-04-03T14:33:56;101273.43;;;10.46;30.92
76819;BME280;65772;51.096;17.006;2023-04-03T14:36:28;101267.11;;;10.46;30.63
76819;BME280;65772;51.096;17.006;2023-04-03T14:39:00;101265.15;;;10.48;30.38
76819;BME280;65772;51.096;17.006;2023-04-03T14:41:31;101268.06;;;10.48;30.15
76819;BME280;65772;51.096;17.006;2023-04-03T14:44:02;101264.16;;;10.49;30.07
76819;BME280;65772;51.096;17.006;2023-04-03T14:46:34;101259.79;;;10.50;30.09
76819;BME280;65772;51.096;17.006;2023-04-03T14:49:26;101256.33;;;10.53;30.12
76819;BME280;65772;51.096;17.006;2023-04-03T14:51:59;101254.63;;;10.57;29.95
76819;BME280;65772;51.096;17.006;2023-04-03T14:54:29;101258.27;;;10.58;30.31
76819;BME280;65772;51.096;17.006;2023-04-03T14:57:01;101266.54;;;10.60;30.26
76819;BME280;65772;51.096;17.006;2023-04-03T14:59:32;101265.42;;;10.62;30.10
76819;BME280;65772;51.096;17.006;2023-04-03T15:02:02;101265.50;;;10.63;30.28
76819;BME280;65772;51.096;17.006;2023-04-03T15:04:36;101266.88;;;10.64;31.41
76819;BME280;65772;51.096;17.006;2023-04-03T15:07:09;101265.64;;;10.63;30.64
76819;BME280;65772;51.096;17.006;2023-04-03T15:09:39;101267.77;;;10.61;30.50
76819;BME280;65772;51.096;17.006;2023-04-03T15:12:10;101271.27;;;10.59;30.74
76819;BME280;65772;51.096;17.006;2023-04-03T15:14:42;101271.41;;;10.58;30.58
76819;BME280;65772;51.096;17.006;2023-04-03T15:17:23;101274.52;;;10.59;30.59
76819;BME280;65772;51.096;17.006;2023-04-03T15:19:54;101272.33;;;10.60;29.92
76819;BME280;65772;51.096;17.006;2023-04-03T15:22:25;101274.04;;;10.60;29.67
76819;BME280;65772;51.096;17.006;2023-04-03T15:24:55;101274.16;;;10.58;30.04
76819;BME280;65772;51.096;17.006;2023-04-03T15:27:26;101273.76;;;10.57;29.94
76819;BME280;65772;51.096;17.006;2023-04-03T15:29:57;101272.45;;;10.54;29.77
76819;BME280;65772;51.096;17.006;2023-04-03T15:32:28;101272.14;;;10.52;29.91
76819;BME280;65772;51.096;17.006;2023-04-03T15:35:01;101274.60;;;10.50;30.00
76819;BME280;65772;51.096;17.006;2023-04-03T15:37:32;101280.02;;;10.48;30.01
76819;BME280;65772;51.096;17.006;2023-04-03T15:40:02;101279.91;;;10.46;30.00
76819;BME280;65772;51.096;17.006;2023-04-03T15:42:33;101282.83;;;10.43;30.25
76819;BME280;65772;51.096;17.006;2023-04-03T15:45:05;101284.64;;;10.41;30.22
76819;BME280;65772;51.096;17.006;2023-04-03T15:47:36;101288.05;;;10.41;30.55
76819;BME280;65772;51.096;17.006;2023-04-03T15:50:08;101286.31;;;10.40;30.72
76819;BME280;65772;51.096;17.006;2023-04-03T15:52:39;101283.00;;;10.39;30.74
76819;BME280;65772;51.096;17.006;2023-04-03T15:55:10;101286.39;;;10.39;31.20
76819;BME280;65772;51.096;17.006;2023-04-03T15:57:40;101285.54;;;10.38;31.14
76819;BME280;65772;51.096;17.006;2023-04-03T16:00:13;101288.26;;;10.38;31.14
76819;BME280;65772;51.096;17.006;2023-04-03T16:02:45;101288.95;;;10.38;31.59
76819;BME280;65772;51.096;17.006;2023-04-03T16:05:16;101291.68;;;10.38;31.54
76819;BME280;65772;51.096;17.006;2023-04-03T16:07:47;101290.39;;;10.36;31.41
76819;BME280;65772;51.096;17.006;2023-04-03T16:10:19;101287.09;;;10.35;31.46
76819;BME280;65772;51.096;17.006;2023-04-03T16:12:50;101290.11;;;10.34;31.45
76819;BME280;65772;51.096;17.006;2023-04-03T16:15:20;101291.70;;;10.32;31.73
76819;BME280;65772;51.096;17.006;2023-04-03T16:17:51;101293.45;;;10.28;31.92
76819;BME280;65772;51.096;17.006;2023-04-03T16:20:23;101298.15;;;10.26;31.71
76819;BME280;65772;51.096;17.006;2023-04-03T16:22:55;101298.40;;;10.24;31.85
76819;BME280;65772;51.096;17.006;2023-04-03T16:25:26;101301.33;;;10.25;32.00
76819;BME280;65772;51.096;17.006;2023-04-03T16:27:57;101302.66;;;10.24;32.05
76819;BME280;65772;51.096;17.006;2023-04-03T16:30:28;101305.16;;;10.23;31.84
76819;BME280;65772;51.096;17.006;2023-04-03T16:32:59;101306.30;;;10.22;32.08
76819;BME280;65772;51.096;17.006;2023-04-03T16:35:30;101308.60;;;10.20;31.94
76819;BME280;65772;51.096;17.006;2023-04-03T16:38:01;101308.12;;;10.17;31.98
76819;BME280;65772;51.096;17.006;2023-04-03T16:40:31;101307.16;;;10.15;32.17
76819;BME280;65772;51.096;17.006;2023-04-03T16:43:03;101309.31;;;10.14;32.10
76819;BME280;65772;51.096;17.006;2023-04-03T16:45:34;101308.92;;;10.13;32.32
76819;BME280;65772;51.096;17.006;2023-04-03T16:48:05;101309.61;;;10.13;32.42
76819;BME280;65772;51.096;17.006;2023-04-03T16:50:36;101310.20;;;10.11;32.60
76819;BME280;65772;51.096;17.006;2023-04-03T16:53:07;101314.75;;;10.10;32.60
76819;BME280;65772;51.096;17.006;2023-04-03T16:55:38;101315.29;;;10.07;32.46
76819;BME280;65772;51.096;17.006;2023-04-03T16:58:09;101320.13;;;10.05;32.59
76819;BME280;65772;51.096;17.006;2023-04-03T17:00:40;101322.86;;;10.04;32.55
76819;BME280;65772;51.096;17.006;2023-04-03T17:03:11;101321.85;;;10.05;32.69
76819;BME280;65772;51.096;17.006;2023-04-03T17:05:41;101321.48;;;10.04;32.85
76819;BME280;65772;51.096;17.006;2023-04-03T17:08:12;101320.80;;;10.04;32.81
76819;BME280;65772;51.096;17.006;2023-04-03T17:10:44;101321.23;;;10.06;32.42
76819;BME280;65772;51.096;17.006;2023-04-03T17:13:14;101321.61;;;10.07;32.32
76819;BME280;65772;51.096;17.006;2023-04-03T17:15:45;101320.98;;;10.09;32.48
76819;BME280;65772;51.096;17.006;2023-04-03T17:18:16;101323.19;;;10.08;32.24
76819;BME280;65772;51.096;17.006;2023-04-03T17:20:46;101326.20;;;10.07;32.47
76819;BME280;65772;51.096;17.006;2023-04-03T17:23:17;101325.48;;;10.06;32.43
76819;BME280;65772;51.096;17.006;2023-04-03T17:25:47;101325.30;;;10.05;32.47
76819;BME280;65772;51.096;17.006;2023-04-03T17:28:18;101327.77;;;10.04;32.41
76819;BME280;65772;51.096;17.006;2023-04-03T17:30:48;101333.85;;;10.02;32.43
76819;BME280;65772;51.096;17.006;2023-04-03T17:33:19;101336.38;;;10.02;32.48
76819;BME280;65772;51.096;17.006;2023-04-03T17:35:50;101337.64;;;10.00;32.81
76819;BME280;65772;51.096;17.006;2023-04-03T17:38:20;101334.52;;;9.99;32.53
76819;BME280;65772;51.096;17.006;2023-04-03T17:40:51;101332.41;;;9.98;32.52
76819;BME280;65772;51.096;17.006;2023-04-03T17:43:21;101338.34;;;9.97;32.73
76819;BME280;65772;51.096;17.006;2023-04-03T17:45:52;101335.16;;;9.98;33.56
76819;BME280;65772;51.096;17.006;2023-04-03T17:48:24;101337.73;;;9.98;33.23
76819;BME280;65772;51.096;17.006;2023-04-03T17:50:56;101336.30;;;9.97;33.00
76819;BME280;65772;51.096;17.006;2023-04-03T17:53:27;101335.58;;;9.96;32.97
76819;BME280;65772;51.096;17.006;2023-04-03T17:55:59;101335.39;;;9.95;32.71
76819;BME280;65772;51.096;17.006;2023-04-03T17:58:34;101340.30;;;9.94;32.74
76819;BME280;65772;51.096;17.006;2023-04-03T18:01:14;101341.58;;;9.93;32.78
76819;BME280;65772;51.096;17.006;2023-04-03T18:03:45;101343.73;;;9.92;32.87
76819;BME280;65772;51.096;17.006;2023-04-03T18:06:18;101340.45;;;9.91;32.94
76819;BME280;65772;51.096;17.006;2023-04-03T18:08:52;101339.29;;;9.91;32.91
76819;BME280;65772;51.096;17.006;2023-04-03T18:11:26;101336.91;;;9.91;32.91
76819;BME280;65772;51.096;17.006;2023-04-03T18:13:58;101340.95;;;9.90;32.84
76819;BME280;65772;51.096;17.006;2023-04-03T18:16:31;101340.40;;;9.90;32.96
76819;BME280;65772;51.096;17.006;2023-04-03T18:19:02;101340.36;;;9.89;32.95
76819;BME280;65772;51.096;17.006;2023-04-03T18:21:57;101339.73;;;9.90;33.81
76819;BME280;65772;51.096;17.006;2023-04-03T18:24:29;101340.70;;;9.92;35.12
76819;BME280;65772;51.096;17.006;2023-04-03T18:27:03;101340.58;;;9.94;35.15
76819;BME280;65772;51.096;17.006;2023-04-03T18:29:37;101342.05;;;9.96;35.38
76819;BME280;65772;51.096;17.006;2023-04-03T18:32:11;101344.40;;;9.95;36.61
76819;BME280;65772;51.096;17.006;2023-04-03T18:34:42;101345.94;;;9.91;37.06
76819;BME280;65772;51.096;17.006;2023-04-03T18:37:14;101345.63;;;9.88;37.63
76819;BME280;65772;51.096;17.006;2023-04-03T18:39:45;101345.17;;;9.86;37.82
76819;BME280;65772;51.096;17.006;2023-04-03T18:42:18;101347.95;;;9.83;38.18
76819;BME280;65772;51.096;17.006;2023-04-03T18:44:51;101347.95;;;9.80;38.33
76819;BME280;65772;51.096;17.006;2023-04-03T18:47:22;101347.37;;;9.75;38.56
76819;BME280;65772;51.096;17.006;2023-04-03T18:49:53;101345.69;;;9.72;38.77
76819;BME280;65772;51.096;17.006;2023-04-03T18:52:24;101347.54;;;9.68;39.13
76819;BME280;65772;51.096;17.006;2023-04-03T18:54:55;101348.39;;;9.65;39.22
76819;BME280;65772;51.096;17.006;2023-04-03T18:57:26;101344.36;;;9.63;39.22
76819;BME280;65772;51.096;17.006;2023-04-03T18:59:56;101344.56;;;9.60;39.66
76819;BME280;65772;51.096;17.006;2023-04-03T19:02:27;101340.36;;;9.58;39.50
76819;BME280;65772;51.096;17.006;2023-04-03T19:04:58;101338.60;;;9.56;39.70
76819;BME280;65772;51.096;17.006;2023-04-03T19:07:29;101337.98;;;9.54;40.30
76819;BME280;65772;51.096;17.006;2023-04-03T19:10:01;101341.11;;;9.51;40.25
76819;BME280;65772;51.096;17.006;2023-04-03T19:12:31;101337.91;;;9.49;40.38
76819;BME280;65772;51.096;17.006;2023-04-03T19:15:04;101343.07;;;9.47;40.37
76819;BME280;65772;51.096;17.006;2023-04-03T19:17:35;101333.60;;;9.45;40.38